createdAt,value
2016-02-10T00:00:28.120Z,3.29
2016-02-10T00:01:28.108Z,3.16
2016-02-10T00:02:28.095Z,3.16
2016-02-10T00:03:28.097Z,3.16
2016-02-10T00:04:28.085Z,3.16
2016-02-10T00:05:28.089Z,3.24
2016-02-10T00:06:28.091Z,3.21
2016-02-10T00:07:28.079Z,3.15
2016-02-10T00:08:28.083Z,3.15
2016-02-10T00:09:28.085Z,3.13
2016-02-10T00:10:28.073Z,3.13
2016-02-10T00:11:28.061Z,3.11
2016-02-10T00:12:28.063Z,3.16
2016-02-10T00:13:28.066Z,3.15
2016-02-10T00:14:28.053Z,3.12
2016-02-10T00:15:28.056Z,3.06
2016-02-10T00:16:28.064Z,2.98
2016-02-10T00:17:28.036Z,3.12
2016-02-10T00:18:28.039Z,3.12
2016-02-10T00:19:28.041Z,3.11
2016-02-10T00:20:28.044Z,3.12
2016-02-10T00:21:28.031Z,3.11
2016-02-10T00:22:28.049Z,3.13
2016-02-10T00:23:28.020Z,3.18
2016-02-10T00:24:28.023Z,3.13
2016-02-10T00:25:28.029Z,3.08
2016-02-10T00:26:28.018Z,3.09
2016-02-10T00:27:27.863Z,3.13
2016-02-10T00:28:28.006Z,3.11
2016-02-10T00:29:27.868Z,3.15
2016-02-10T00:30:28.012Z,3.18
2016-02-10T00:31:27.998Z,3.18
2016-02-10T00:32:28.002Z,3.22
2016-02-10T00:33:27.990Z,3.12
2016-02-10T00:34:27.993Z,3.18
2016-02-10T00:35:27.995Z,3.3
2016-02-10T00:36:27.982Z,3.29
2016-02-10T00:37:27.985Z,3.29
2016-02-10T00:38:27.987Z,3.18
2016-02-10T00:39:27.975Z,3.29
2016-02-10T00:40:27.965Z,3.27
2016-02-10T00:41:27.967Z,3.31
2016-02-10T00:42:27.971Z,3.33
2016-02-10T00:43:27.973Z,3.33
2016-02-10T00:44:27.959Z,3.31
2016-02-10T00:45:27.963Z,3.26
2016-02-10T00:46:27.950Z,3.34
2016-02-10T00:47:27.953Z,3.27
2016-02-10T00:48:27.940Z,3.31
2016-02-10T00:49:27.942Z,3.3
2016-02-10T00:50:27.945Z,3.16
2016-02-10T00:51:27.932Z,3.29
2016-02-10T00:52:27.934Z,3.26
2016-02-10T00:53:27.921Z,3.31
2016-02-10T00:54:27.925Z,3.31
2016-02-10T00:55:27.911Z,3.27
2016-02-10T00:56:27.914Z,3.31
2016-02-10T00:57:27.917Z,3.22
2016-02-10T00:58:27.903Z,3.26
2016-02-10T00:59:27.906Z,3.36
2016-02-10T01:00:27.894Z,3.26
2016-02-10T01:01:27.896Z,3.3
2016-02-10T01:02:27.899Z,3.3
2016-02-10T01:03:27.886Z,3.29
2016-02-10T01:04:27.889Z,3.31
2016-02-10T01:05:27.891Z,3.24
2016-02-10T01:06:27.878Z,3.22
2016-02-10T01:07:27.882Z,3.26
2016-02-10T01:08:27.868Z,3.27
2016-02-10T01:09:27.872Z,3.29
2016-02-10T01:10:27.876Z,3.24
2016-02-10T01:11:27.878Z,3.27
2016-02-10T01:12:27.865Z,3.33
2016-02-10T01:13:27.868Z,3.19
2016-02-10T01:14:27.855Z,3.4
2016-02-10T01:15:27.842Z,3.4
2016-02-10T01:16:27.845Z,3.34
2016-02-10T01:17:27.847Z,3.37
2016-02-10T01:18:27.834Z,3.45
2016-02-10T01:19:27.837Z,3.34
2016-02-10T01:20:27.839Z,3.3
2016-02-10T01:21:27.828Z,3.33
2016-02-10T01:22:27.830Z,3.34
2016-02-10T01:23:27.832Z,3.29
2016-02-10T01:24:27.819Z,3.36
2016-02-10T01:25:27.807Z,3.37
2016-02-10T01:26:27.828Z,3.34
2016-02-10T01:27:27.799Z,3.36
2016-02-10T01:28:27.802Z,3.31
2016-02-10T01:29:27.805Z,3.34
2016-02-10T01:30:27.807Z,3.36
2016-02-10T01:31:27.794Z,3.4
2016-02-10T01:32:27.782Z,3.36
2016-02-10T01:33:27.799Z,3.43
2016-02-10T01:34:27.789Z,3.34
2016-02-10T01:35:27.775Z,3.5
2016-02-10T01:36:27.794Z,3.49
2016-02-10T01:37:27.764Z,3.49
2016-02-10T01:38:27.767Z,3.46
2016-02-10T01:39:27.613Z,3.56
2016-02-10T01:40:27.661Z,3.52
2016-02-10T01:41:27.758Z,3.5
2016-02-10T01:42:27.761Z,3.5
2016-02-10T01:43:27.780Z,3.58
2016-02-10T01:44:27.751Z,3.56
2016-02-10T01:45:27.737Z,3.53
2016-02-10T01:46:27.741Z,3.53
2016-02-10T01:47:27.743Z,3.55
2016-02-10T01:48:27.730Z,3.46
2016-02-10T01:49:27.734Z,3.48
2016-02-10T01:50:27.720Z,3.5
2016-02-10T01:51:27.724Z,3.34
2016-02-10T01:52:27.727Z,3.49
2016-02-10T01:53:27.714Z,3.46
2016-02-10T01:54:27.701Z,3.49
2016-02-10T01:55:27.719Z,3.49
2016-02-10T01:56:27.706Z,3.53
2016-02-10T01:57:27.692Z,3.53
2016-02-10T01:58:27.696Z,3.52
2016-02-10T01:59:27.699Z,3.43
2016-02-10T02:00:27.687Z,3.53
2016-02-10T02:01:27.690Z,3.36
2016-02-10T02:02:27.692Z,3.5
2016-02-10T02:03:27.695Z,3.52
2016-02-10T02:04:27.682Z,3.41
2016-02-10T02:05:27.684Z,3.49
2016-02-10T02:06:27.671Z,3.43
2016-02-10T02:07:27.661Z,3.48
2016-02-10T02:08:27.679Z,3.53
2016-02-10T02:09:27.666Z,3.43
2016-02-10T02:10:27.653Z,3.56
2016-02-10T02:11:27.657Z,3.5
2016-02-10T02:12:27.644Z,3.37
2016-02-10T02:13:27.647Z,3.52
2016-02-10T02:14:27.650Z,3.49
2016-02-10T02:15:27.652Z,3.48
2016-02-10T02:16:27.655Z,3.41
2016-02-10T02:17:27.643Z,3.34
2016-02-10T02:18:27.660Z,3.4
2016-02-10T02:19:27.632Z,3.36
2016-02-10T02:20:27.620Z,3.34
2016-02-10T02:21:27.622Z,3.33
2016-02-10T02:22:27.625Z,3.31
2016-02-10T02:23:27.628Z,3.3
2016-02-10T02:24:27.614Z,3.36
2016-02-10T02:25:27.601Z,3.31
2016-02-10T02:26:27.604Z,3.31
2016-02-10T02:27:27.607Z,3.29
2016-02-10T02:28:27.610Z,3.27
2016-02-10T02:29:27.598Z,3.16
2016-02-10T02:30:27.585Z,3.22
2016-02-10T02:31:27.588Z,3.18
2016-02-10T02:32:27.590Z,3.11
2016-02-10T02:33:27.577Z,3.18
2016-02-10T02:34:27.579Z,3.15
2016-02-10T02:35:27.582Z,3.13
2016-02-10T02:36:27.569Z,3.18
2016-02-10T02:37:27.573Z,3.18
2016-02-10T02:38:27.575Z,3.16
2016-02-10T02:39:27.562Z,3.15
2016-02-10T02:40:27.565Z,3.19
2016-02-10T02:41:27.552Z,3.13
2016-02-10T02:42:27.555Z,3.18
2016-02-10T02:43:27.545Z,3.19
2016-02-10T02:44:27.547Z,3.15
2016-02-10T02:45:27.550Z,3.08
2016-02-10T02:46:27.553Z,3.06
2016-02-10T02:47:27.539Z,3.13
2016-02-10T02:48:27.527Z,3.12
2016-02-10T02:49:27.545Z,3.06
2016-02-10T02:50:27.516Z,3.06
2016-02-10T02:51:27.519Z,3.18
2016-02-10T02:52:27.520Z,3.15
2016-02-10T02:53:27.497Z,3.15
2016-02-10T02:54:27.488Z,2.97
2016-02-10T02:55:27.479Z,2.97
2016-02-10T02:56:27.456Z,2.98
2016-02-10T02:57:27.433Z,3.05
2016-02-10T02:58:27.431Z,2.9
2016-02-10T02:59:27.430Z,2.83
2016-02-10T03:00:27.414Z,2.88
2016-02-10T03:01:27.429Z,2.9
2016-02-10T03:02:27.411Z,2.76
2016-02-10T03:03:27.398Z,2.77
2016-02-10T03:04:27.398Z,2.79
2016-02-10T03:05:27.400Z,2.8
2016-02-10T03:06:27.385Z,2.65
2016-02-10T03:07:27.386Z,2.64
2016-02-10T03:08:27.390Z,2.69
2016-02-10T03:09:27.377Z,2.68
2016-02-10T03:10:27.363Z,2.76
2016-02-10T03:11:27.366Z,2.69
2016-02-10T03:12:27.368Z,2.65
2016-02-10T03:13:27.361Z,2.69
2016-02-10T03:14:27.364Z,2.59
2016-02-10T03:15:27.350Z,2.5
2016-02-10T03:16:27.353Z,2.68
2016-02-10T03:17:27.341Z,2.52
2016-02-10T03:18:27.343Z,2.52
2016-02-10T03:19:27.331Z,2.62
2016-02-10T03:20:27.336Z,2.58
2016-02-10T03:21:27.338Z,2.64
2016-02-10T03:22:27.325Z,2.61
2016-02-10T03:23:27.328Z,2.59
2016-02-10T03:24:27.330Z,2.51
2016-02-10T03:25:27.318Z,2.5
2016-02-10T03:26:27.321Z,2.57
2016-02-10T03:27:27.324Z,2.51
2016-02-10T03:28:27.310Z,2.47
2016-02-10T03:29:27.298Z,2.55
2016-02-10T03:30:27.300Z,2.59
2016-02-10T03:31:27.304Z,2.59
2016-02-10T03:32:27.290Z,2.55
2016-02-10T03:33:27.292Z,2.43
2016-02-10T03:34:27.280Z,2.43
2016-02-10T03:35:27.282Z,2.51
2016-02-10T03:36:27.285Z,2.5
2016-02-10T03:37:27.273Z,2.51
2016-02-10T03:38:27.290Z,2.51
2016-02-10T03:39:27.262Z,2.52
2016-02-10T03:40:27.265Z,2.5
2016-02-10T03:41:27.267Z,2.47
2016-02-10T03:42:27.270Z,2.46
2016-02-10T03:43:27.257Z,2.39
2016-02-10T03:44:27.250Z,2.37
2016-02-10T03:45:27.253Z,2.44
2016-02-10T03:46:27.240Z,2.46
2016-02-10T03:47:27.242Z,2.39
2016-02-10T03:48:27.245Z,2.43
2016-02-10T03:49:27.233Z,2.5
2016-02-10T03:50:27.236Z,2.43
2016-02-10T03:51:27.224Z,2.43
2016-02-10T03:52:27.226Z,2.43
2016-02-10T03:53:27.213Z,2.47
2016-02-10T03:54:27.216Z,2.44
2016-02-10T03:55:27.219Z,2.41
2016-02-10T03:56:27.206Z,2.41
2016-02-10T03:57:27.209Z,2.4
2016-02-10T03:58:27.212Z,2.47
2016-02-10T03:59:27.199Z,2.5
2016-02-10T04:00:27.185Z,2.39
2016-02-10T04:01:27.188Z,2.52
2016-02-10T04:02:27.207Z,2.41
2016-02-10T04:03:27.193Z,2.46
2016-02-10T04:04:27.196Z,2.5
2016-02-10T04:05:27.198Z,2.39
2016-02-10T04:06:27.171Z,2.54
2016-02-10T04:07:27.173Z,2.46
2016-02-10T04:08:27.176Z,2.52
2016-02-10T04:09:27.164Z,2.44
2016-02-10T04:10:27.166Z,2.46
2016-02-10T04:11:27.169Z,2.57
2016-02-10T04:12:27.156Z,2.55
2016-02-10T04:13:27.159Z,2.54
2016-02-10T04:14:27.162Z,2.46
2016-02-10T04:15:27.150Z,2.52
2016-02-10T04:16:27.137Z,2.47
2016-02-10T04:17:27.140Z,2.47
2016-02-10T04:18:27.143Z,2.5
2016-02-10T04:19:27.130Z,2.44
2016-02-10T04:20:27.133Z,2.55
2016-02-10T04:21:27.151Z,2.46
2016-02-10T04:22:27.139Z,2.47
2016-02-10T04:23:27.125Z,2.44
2016-02-10T04:24:27.128Z,2.51
2016-02-10T04:25:27.116Z,2.47
2016-02-10T04:26:27.107Z,2.46
2016-02-10T04:27:27.125Z,2.5
2016-02-10T04:28:27.113Z,2.52
2016-02-10T04:29:27.099Z,2.43
2016-02-10T04:30:27.102Z,2.43
2016-02-10T04:31:27.090Z,2.44
2016-02-10T04:32:27.107Z,2.43
2016-02-10T04:33:27.079Z,2.5
2016-02-10T04:34:27.081Z,2.47
2016-02-10T04:35:27.085Z,2.4
2016-02-10T04:36:27.071Z,2.44
2016-02-10T04:37:27.074Z,2.47
2016-02-10T04:38:27.077Z,2.33
2016-02-10T04:39:27.064Z,2.37
2016-02-10T04:40:27.067Z,2.36
2016-02-10T04:41:27.070Z,2.46
2016-02-10T04:42:27.056Z,2.39
2016-02-10T04:43:27.044Z,2.41
2016-02-10T04:44:27.062Z,2.39
2016-02-10T04:45:27.050Z,2.37
2016-02-10T04:46:27.041Z,2.33
2016-02-10T04:47:27.044Z,2.41
2016-02-10T04:48:27.046Z,2.43
2016-02-10T04:49:27.033Z,2.36
2016-02-10T04:50:27.036Z,2.37
2016-02-10T04:51:27.069Z,2.39
2016-02-10T04:52:27.026Z,2.4
2016-02-10T04:53:27.029Z,2.41
2016-02-10T04:54:27.016Z,2.34
2016-02-10T04:55:27.020Z,2.33
2016-02-10T04:56:27.022Z,2.37
2016-02-10T04:57:27.024Z,2.32
2016-02-10T04:58:27.011Z,2.37
2016-02-10T04:59:26.999Z,2.37
2016-02-10T05:00:27.002Z,2.33
2016-02-10T05:01:26.988Z,2.37
2016-02-10T05:02:26.992Z,2.43
2016-02-10T05:03:26.994Z,2.36
2016-02-10T05:04:26.982Z,2.4
2016-02-10T05:05:27.000Z,2.32
2016-02-10T05:06:26.986Z,2.37
2016-02-10T05:07:26.975Z,2.33
2016-02-10T05:08:26.977Z,2.36
2016-02-10T05:09:26.964Z,2.37
2016-02-10T05:10:26.970Z,2.36
2016-02-10T05:11:26.972Z,2.32
2016-02-10T05:12:26.959Z,2.36
2016-02-10T05:13:26.947Z,2.39
2016-02-10T05:14:26.964Z,2.34
2016-02-10T05:15:26.951Z,2.39
2016-02-10T05:16:26.955Z,2.44
2016-02-10T05:17:26.948Z,2.36
2016-02-10T05:18:26.935Z,2.43
2016-02-10T05:19:26.938Z,2.46
2016-02-10T05:20:26.940Z,2.44
2016-02-10T05:21:26.929Z,2.44
2016-02-10T05:22:26.931Z,2.44
2016-02-10T05:23:26.917Z,2.46
2016-02-10T05:24:26.936Z,2.43
2016-02-10T05:25:26.923Z,2.44
2016-02-10T05:26:26.909Z,2.5
2016-02-10T05:27:26.913Z,2.5
2016-02-10T05:28:26.901Z,2.46
2016-02-10T05:29:26.903Z,2.44
2016-02-10T05:30:26.907Z,2.46
2016-02-10T05:31:26.893Z,2.47
2016-02-10T05:32:26.895Z,2.39
2016-02-10T05:33:26.884Z,2.52
2016-02-10T05:34:26.886Z,2.37
2016-02-10T05:35:26.889Z,2.41
2016-02-10T05:36:26.877Z,2.46
2016-02-10T05:37:26.895Z,2.5
2016-02-10T05:38:26.883Z,2.44
2016-02-10T05:39:26.870Z,2.44
2016-02-10T05:40:26.872Z,2.51
2016-02-10T05:41:26.859Z,2.36
2016-02-10T05:42:26.863Z,2.5
2016-02-10T05:43:26.865Z,2.51
2016-02-10T05:44:26.851Z,2.41
2016-02-10T05:45:26.855Z,2.46
2016-02-10T05:46:26.841Z,2.47
2016-02-10T05:47:26.846Z,2.43
2016-02-10T05:48:26.834Z,2.46
2016-02-10T05:49:26.836Z,2.5
2016-02-10T05:50:26.823Z,2.51
2016-02-10T05:51:26.841Z,2.47
2016-02-10T05:52:26.828Z,2.52
2016-02-10T05:53:26.816Z,2.44
2016-02-10T05:54:26.834Z,2.5
2016-02-10T05:55:26.821Z,2.47
2016-02-10T05:56:26.808Z,2.52
2016-02-10T05:57:26.811Z,2.47
2016-02-10T05:58:26.798Z,2.47
2016-02-10T05:59:26.800Z,2.46
2016-02-10T06:00:26.788Z,2.5
2016-02-10T06:01:26.790Z,2.51
2016-02-10T06:02:26.794Z,2.55
2016-02-10T06:03:26.781Z,2.47
2016-02-10T06:04:26.784Z,2.5
2016-02-10T06:05:26.786Z,2.55
2016-02-10T06:06:26.789Z,2.5
2016-02-10T06:07:26.776Z,2.47
2016-02-10T06:08:26.778Z,2.37
2016-02-10T06:09:26.766Z,2.51
2016-02-10T06:10:26.769Z,2.44
2016-02-10T06:11:26.772Z,2.39
2016-02-10T06:12:26.761Z,2.52
2016-02-10T06:13:26.747Z,2.5
2016-02-10T06:14:26.750Z,2.47
2016-02-10T06:15:26.769Z,2.46
2016-02-10T06:16:26.742Z,2.44
2016-02-10T06:17:26.745Z,2.52
2016-02-10T06:18:26.747Z,2.44
2016-02-10T06:19:26.734Z,2.52
2016-02-10T06:20:26.738Z,2.54
2016-02-10T06:21:26.741Z,2.54
2016-02-10T06:22:26.727Z,2.37
2016-02-10T06:23:26.714Z,2.52
2016-02-10T06:24:26.733Z,2.51
2016-02-10T06:25:26.720Z,2.59
2016-02-10T06:26:26.707Z,2.51
2016-02-10T06:27:26.710Z,2.47
2016-02-10T06:28:26.698Z,2.5
2016-02-10T06:29:26.701Z,2.47
2016-02-10T06:30:26.687Z,2.47
2016-02-10T06:31:26.690Z,2.52
2016-02-10T06:32:26.693Z,2.44
2016-02-10T06:33:26.696Z,2.44
2016-02-10T06:34:26.682Z,2.54
2016-02-10T06:35:26.685Z,2.46
2016-02-10T06:36:26.735Z,2.52
2016-02-10T06:37:26.690Z,2.54
2016-02-10T06:38:26.662Z,2.5
2016-02-10T06:39:26.665Z,2.47
2016-02-10T06:40:26.667Z,2.51
2016-02-10T06:41:26.654Z,2.47
2016-02-10T06:42:26.657Z,2.51
2016-02-10T06:43:26.659Z,2.5
2016-02-10T06:44:26.648Z,2.54
2016-02-10T06:45:26.650Z,2.5
2016-02-10T06:46:26.637Z,2.44
2016-02-10T06:47:26.642Z,2.39
2016-02-10T06:48:26.676Z,2.57
2016-02-10T06:49:26.632Z,2.46
2016-02-10T06:50:26.635Z,2.51
2016-02-10T06:51:26.637Z,2.46
2016-02-10T06:52:26.624Z,2.43
2016-02-10T06:53:26.628Z,2.43
2016-02-10T06:54:26.615Z,2.5
2016-02-10T06:55:26.618Z,2.5
2016-02-10T06:56:26.621Z,2.44
2016-02-10T06:57:26.609Z,2.41
2016-02-10T06:58:26.612Z,2.46
2016-02-10T06:59:26.599Z,2.51
2016-02-10T07:00:26.601Z,2.54
2016-02-10T07:01:26.604Z,2.46
2016-02-10T07:02:26.590Z,2.41
2016-02-10T07:03:26.594Z,2.47
2016-02-10T07:04:26.395Z,2.47
2016-02-10T07:05:26.569Z,2.54
2016-02-10T07:06:26.573Z,2.44
2016-02-10T07:07:26.575Z,2.47
2016-02-10T07:08:26.578Z,2.52
2016-02-10T07:09:26.565Z,2.44
2016-02-10T07:10:26.584Z,2.5
2016-02-10T07:11:26.554Z,2.46
2016-02-10T07:12:26.558Z,2.44
2016-02-10T07:13:26.562Z,2.5
2016-02-10T07:14:26.549Z,2.5
2016-02-10T07:15:26.568Z,2.46
2016-02-10T07:16:26.538Z,2.43
2016-02-10T07:17:26.541Z,2.5
2016-02-10T07:18:26.536Z,2.37
2016-02-10T07:19:26.539Z,2.51
2016-02-10T07:20:26.525Z,2.46
2016-02-10T07:21:26.528Z,2.5
2016-02-10T07:22:26.530Z,2.55
2016-02-10T07:23:26.517Z,2.5
2016-02-10T07:24:26.520Z,2.46
2016-02-10T07:25:26.522Z,2.52
2016-02-10T07:26:26.510Z,2.59
2016-02-10T07:27:26.513Z,2.55
2016-02-10T07:28:26.499Z,2.58
2016-02-10T07:29:26.503Z,2.57
2016-02-10T07:30:26.491Z,2.61
2016-02-10T07:31:26.494Z,2.61
2016-02-10T07:32:26.496Z,2.61
2016-02-10T07:33:26.499Z,2.61
2016-02-10T07:34:26.486Z,2.57
2016-02-10T07:35:26.488Z,2.69
2016-02-10T07:36:26.475Z,2.73
2016-02-10T07:37:26.478Z,2.7
2016-02-10T07:38:26.467Z,2.65
2016-02-10T07:39:26.470Z,2.7
2016-02-10T07:40:26.457Z,2.77
2016-02-10T07:41:26.459Z,2.72
2016-02-10T07:42:26.462Z,2.82
2016-02-10T07:43:26.465Z,2.76
2016-02-10T07:44:26.468Z,2.83
2016-02-10T07:45:26.455Z,2.9
2016-02-10T07:46:26.443Z,2.97
2016-02-10T07:47:26.493Z,3
2016-02-10T07:48:26.432Z,2.98
2016-02-10T07:49:26.451Z,3.09
2016-02-10T07:50:26.438Z,3.15
2016-02-10T07:51:26.442Z,3.21
2016-02-10T07:52:26.428Z,3.13
2016-02-10T07:53:26.431Z,3.27
2016-02-10T07:54:26.419Z,3.27
2016-02-10T07:55:26.421Z,3.31
2016-02-10T07:56:26.424Z,3.36
2016-02-10T07:57:26.410Z,3.34
2016-02-10T07:58:26.413Z,3.29
2016-02-10T07:59:26.415Z,3.33
2016-02-10T08:00:26.404Z,3.31
2016-02-10T08:01:26.406Z,3.48
2016-02-10T08:02:26.393Z,3.5
2016-02-10T08:03:26.429Z,3.55
2016-02-10T08:04:26.400Z,3.58
2016-02-10T08:05:26.387Z,3.46
2016-02-10T08:06:26.377Z,3.52
2016-02-10T08:07:26.379Z,3.52
2016-02-10T08:08:26.382Z,3.61
2016-02-10T08:09:26.385Z,3.58
2016-02-10T08:10:26.388Z,3.66
2016-02-10T08:11:26.374Z,3.64
2016-02-10T08:12:26.377Z,3.64
2016-02-10T08:13:26.379Z,3.73
2016-02-10T08:14:26.369Z,3.77
2016-02-10T08:15:26.357Z,3.76
2016-02-10T08:16:26.391Z,3.73
2016-02-10T08:17:26.362Z,3.77
2016-02-10T08:18:26.365Z,3.78
2016-02-10T08:19:26.357Z,3.78
2016-02-10T08:20:26.343Z,3.92
2016-02-10T08:21:26.346Z,3.95
2016-02-10T08:22:26.335Z,3.94
2016-02-10T08:23:26.337Z,4.06
2016-02-10T08:24:26.324Z,4.14
2016-02-10T08:25:26.327Z,4.21
2016-02-10T08:26:26.345Z,4.14
2016-02-10T08:27:26.488Z,4.12
2016-02-10T08:28:26.320Z,4.18
2016-02-10T08:29:26.322Z,4.2
2016-02-10T08:30:26.341Z,4.21
2016-02-10T08:31:26.329Z,4.2
2016-02-10T08:32:26.300Z,4.31
2016-02-10T08:33:26.320Z,4.39
2016-02-10T08:34:26.306Z,4.39
2016-02-10T08:35:26.152Z,4.38
2016-02-10T08:36:26.296Z,4.49
2016-02-10T08:37:26.298Z,4.58
2016-02-10T08:38:26.286Z,4.6
2016-02-10T08:39:26.305Z,4.57
2016-02-10T08:40:26.292Z,4.58
2016-02-10T08:41:26.278Z,4.6
2016-02-10T08:42:26.297Z,4.63
2016-02-10T08:43:26.284Z,4.63
2016-02-10T08:44:26.272Z,4.61
2016-02-10T08:45:26.275Z,4.61
2016-02-10T08:46:26.262Z,4.52
2016-02-10T08:47:26.265Z,4.64
2016-02-10T08:48:26.284Z,4.68
2016-02-10T08:49:26.270Z,4.66
2016-02-10T08:50:26.249Z,4.6
2016-02-10T08:51:26.266Z,4.61
2016-02-10T08:52:26.254Z,4.68
2016-02-10T08:53:26.257Z,4.66
2016-02-10T08:54:26.260Z,4.66
2016-02-10T08:55:26.293Z,4.66
2016-02-10T08:56:26.250Z,4.71
2016-02-10T08:57:26.253Z,4.78
2016-02-10T08:58:26.240Z,4.9
2016-02-10T08:59:26.242Z,5.04
2016-02-10T09:00:26.276Z,5.2
2016-02-10T09:01:26.234Z,5.23
2016-02-10T09:02:26.236Z,5.29
2016-02-10T09:03:26.239Z,5.34
2016-02-10T09:04:26.225Z,5.4
2016-02-10T09:05:26.245Z,5.67
2016-02-10T09:06:26.856Z,5.95
2016-02-10T09:07:26.640Z,6.06
2016-02-10T09:08:26.673Z,6.17
2016-02-10T09:09:26.286Z,6.28
2016-02-10T09:10:26.226Z,6.28
2016-02-10T09:11:26.197Z,6.25
2016-02-10T09:12:26.216Z,6.15
2016-02-10T09:13:26.203Z,6.1
2016-02-10T09:14:26.207Z,5.98
2016-02-10T09:15:26.225Z,5.94
2016-02-10T09:16:26.212Z,5.81
2016-02-10T09:17:26.198Z,5.8
2016-02-10T09:18:26.201Z,5.88
2016-02-10T09:19:26.204Z,5.97
2016-02-10T09:20:26.210Z,5.97
2016-02-10T09:21:26.199Z,5.92
2016-02-10T09:22:26.202Z,5.88
2016-02-10T09:23:26.219Z,5.8
2016-02-10T09:24:26.191Z,5.64
2016-02-10T09:25:26.178Z,5.59
2016-02-10T09:26:26.181Z,5.54
2016-02-10T09:27:26.184Z,5.4
2016-02-10T09:28:26.171Z,5.36
2016-02-10T09:29:26.204Z,5.26
2016-02-10T09:30:26.177Z,5.2
2016-02-10T09:31:26.163Z,5.16
2016-02-10T09:32:26.167Z,5.05
2016-02-10T09:33:26.170Z,4.92
2016-02-10T09:34:26.172Z,4.94
2016-02-10T09:35:26.175Z,4.94
2016-02-10T09:36:26.163Z,4.78
2016-02-10T09:37:26.165Z,4.68
2016-02-10T09:38:26.168Z,4.67
2016-02-10T09:39:26.170Z,4.68
2016-02-10T09:40:26.142Z,4.63
2016-02-10T09:41:26.161Z,4.57
2016-02-10T09:42:26.147Z,4.5
2016-02-10T09:43:26.150Z,4.48
2016-02-10T09:44:26.153Z,4.39
2016-02-10T09:45:26.156Z,4.43
2016-02-10T09:46:26.143Z,4.24
2016-02-10T09:47:26.146Z,4.34
2016-02-10T09:48:26.148Z,4.21
2016-02-10T09:49:26.138Z,4.22
2016-02-10T09:50:26.125Z,4.2
2016-02-10T09:51:26.143Z,4.21
2016-02-10T09:52:26.129Z,4.24
2016-02-10T09:53:26.120Z,4.45
2016-02-10T09:54:26.122Z,4.48
2016-02-10T09:55:26.125Z,4.56
2016-02-10T09:56:26.112Z,4.66
2016-02-10T09:57:26.111Z,4.78
2016-02-10T09:58:26.114Z,5
2016-02-10T09:59:26.117Z,5.05
2016-02-10T10:00:26.104Z,5.13
2016-02-10T10:01:26.122Z,5.2
2016-02-10T10:02:26.109Z,5.2
2016-02-10T10:03:26.096Z,5.16
2016-02-10T10:04:26.098Z,5.16
2016-02-10T10:05:26.103Z,5.18
2016-02-10T10:06:25.949Z,5.2
2016-02-10T10:07:26.092Z,5.18
2016-02-10T10:08:26.111Z,5.28
2016-02-10T10:09:26.082Z,5.36
2016-02-10T10:10:26.100Z,5.38
2016-02-10T10:11:26.088Z,5.58
2016-02-10T10:12:26.091Z,5.77
2016-02-10T10:13:26.234Z,5.88
2016-02-10T10:14:26.081Z,5.88
2016-02-10T10:15:26.068Z,6.01
2016-02-10T10:16:26.086Z,6.12
2016-02-10T10:17:26.075Z,6.32
2016-02-10T10:18:26.077Z,6.47
2016-02-10T10:19:26.080Z,6.65
2016-02-10T10:20:26.068Z,6.71
2016-02-10T10:21:26.070Z,7
2016-02-10T10:22:26.059Z,7.31
2016-02-10T10:23:26.062Z,7.39
2016-02-10T10:24:26.065Z,7.58
2016-02-10T10:25:26.068Z,7.8
2016-02-10T10:26:26.070Z,7.84
2016-02-10T10:27:26.057Z,7.98
2016-02-10T10:28:26.059Z,7.99
2016-02-10T10:29:26.078Z,8.01
2016-02-10T10:30:26.050Z,7.93
2016-02-10T10:31:26.053Z,7.99
2016-02-10T10:32:26.055Z,8.02
2016-02-10T10:33:26.059Z,7.93
2016-02-10T10:34:26.046Z,7.85
2016-02-10T10:35:26.033Z,7.72
2016-02-10T10:36:26.035Z,7.7
2016-02-10T10:37:26.054Z,7.69
2016-02-10T10:38:26.041Z,7.59
2016-02-10T10:39:26.028Z,7.61
2016-02-10T10:40:26.031Z,7.58
2016-02-10T10:41:26.033Z,7.77
2016-02-10T10:42:26.037Z,7.81
2016-02-10T10:43:26.039Z,8.03
2016-02-10T10:44:26.027Z,8.16
2016-02-10T10:45:26.014Z,8.35
2016-02-10T10:46:26.032Z,8.49
2016-02-10T10:47:26.050Z,8.45
2016-02-10T10:48:26.037Z,8.5
2016-02-10T10:49:26.025Z,8.49
2016-02-10T10:50:26.029Z,8.42
2016-02-10T10:51:26.021Z,8.36
2016-02-10T10:52:26.023Z,8.27
2016-02-10T10:53:26.013Z,8.28
2016-02-10T10:54:26.032Z,8.24
2016-02-10T10:55:26.018Z,8.08
2016-02-10T10:56:26.005Z,8.05
2016-02-10T10:57:26.008Z,7.87
2016-02-10T10:58:26.027Z,7.69
2016-02-10T10:59:26.014Z,7.53
2016-02-10T11:00:26.016Z,7.56
2016-02-10T11:01:26.004Z,7.51
2016-02-10T11:02:26.007Z,7.58
2016-02-10T11:03:26.009Z,7.53
2016-02-10T11:04:25.996Z,7.59
2016-02-10T11:05:25.999Z,7.67
2016-02-10T11:06:26.518Z,7.67
2016-02-10T11:07:26.005Z,7.74
2016-02-10T11:08:26.007Z,7.7
2016-02-10T11:09:25.995Z,7.59
2016-02-10T11:10:25.997Z,7.56
2016-02-10T11:11:26.015Z,7.46
2016-02-10T11:12:25.987Z,7.41
2016-02-10T11:13:25.989Z,7.32
2016-02-10T11:14:25.992Z,7.23
2016-02-10T11:15:25.981Z,7.32
2016-02-10T11:16:25.984Z,7.31
2016-02-10T11:17:25.987Z,7.22
2016-02-10T11:18:25.989Z,7.19
2016-02-10T11:19:25.992Z,7.04
2016-02-10T11:20:25.981Z,6.89
2016-02-10T11:21:25.984Z,6.71
2016-02-10T11:22:25.987Z,6.52
2016-02-10T11:23:25.973Z,6.49
2016-02-10T11:24:25.978Z,6.46
2016-02-10T11:25:25.981Z,6.36
2016-02-10T11:26:25.967Z,6.31
2016-02-10T11:27:25.970Z,6.29
2016-02-10T11:28:25.973Z,6.28
2016-02-10T11:29:25.975Z,6.26
2016-02-10T11:30:25.978Z,6.09
2016-02-10T11:31:25.966Z,6.13
2016-02-10T11:32:25.970Z,6.09
2016-02-10T11:33:25.972Z,6.16
2016-02-10T11:34:25.975Z,6.02
2016-02-10T11:35:25.964Z,5.98
2016-02-10T11:36:25.966Z,5.88
2016-02-10T11:37:25.953Z,5.95
2016-02-10T11:38:25.972Z,5.94
2016-02-10T11:39:25.958Z,5.95
2016-02-10T11:40:25.961Z,5.83
2016-02-10T11:41:25.949Z,5.84
2016-02-10T11:42:25.966Z,5.74
2016-02-10T11:43:25.954Z,5.61
2016-02-10T11:44:25.941Z,5.64
2016-02-10T11:45:25.944Z,5.51
2016-02-10T11:46:25.962Z,5.51
2016-02-10T11:47:25.949Z,5.37
2016-02-10T11:48:25.936Z,5.43
2016-02-10T11:49:25.954Z,5.36
2016-02-10T11:50:25.941Z,5.18
2016-02-10T11:51:25.947Z,5.2
2016-02-10T11:52:25.935Z,5.13
2016-02-10T11:53:25.938Z,5.08
2016-02-10T11:54:25.941Z,5.07
2016-02-10T11:55:25.943Z,5.08
2016-02-10T11:56:25.946Z,5.18
2016-02-10T11:57:25.933Z,5.2
2016-02-10T11:58:25.947Z,5.28
2016-02-10T11:59:25.904Z,5.34
2016-02-10T12:00:25.911Z,5.36
2016-02-10T12:01:25.883Z,5.52
2016-02-10T12:02:25.871Z,5.64
2016-02-10T12:03:25.848Z,5.67
2016-02-10T12:04:25.845Z,5.8
2016-02-10T12:05:25.843Z,5.77
2016-02-10T12:06:25.825Z,5.99
2016-02-10T12:07:25.822Z,5.99
2016-02-10T12:08:25.822Z,6.02
2016-02-10T12:09:25.824Z,5.98
2016-02-10T12:10:25.809Z,5.8
2016-02-10T12:11:25.810Z,5.87
2016-02-10T12:12:25.811Z,5.79
2016-02-10T12:13:25.812Z,5.76
2016-02-10T12:14:25.799Z,5.73
2016-02-10T12:15:25.801Z,5.73
2016-02-10T12:16:25.819Z,5.67
2016-02-10T12:17:25.803Z,5.61
2016-02-10T12:18:25.805Z,5.54
2016-02-10T12:19:25.792Z,5.51
2016-02-10T12:20:25.794Z,5.4
2016-02-10T12:21:25.781Z,5.44
2016-02-10T12:22:25.789Z,5.41
2016-02-10T12:23:25.775Z,5.38
2016-02-10T12:24:25.778Z,5.34
2016-02-10T12:25:25.797Z,5.28
2016-02-10T12:26:25.783Z,5.31
2016-02-10T12:27:25.802Z,5.31
2016-02-10T12:28:25.633Z,5.26
2016-02-10T12:29:25.775Z,5.26
2016-02-10T12:30:25.794Z,5.25
2016-02-10T12:31:25.781Z,5.18
2016-02-10T12:32:25.768Z,5.26
2016-02-10T12:33:25.772Z,5.25
2016-02-10T12:34:25.775Z,5.31
2016-02-10T12:35:25.778Z,5.36
2016-02-10T12:36:25.764Z,5.47
2016-02-10T12:37:25.783Z,5.38
2016-02-10T12:38:25.754Z,5.37
2016-02-10T12:39:25.756Z,5.43
2016-02-10T12:40:25.759Z,5.56
2016-02-10T12:41:25.762Z,5.52
2016-02-10T12:42:25.764Z,5.58
2016-02-10T12:43:25.752Z,5.72
2016-02-10T12:44:25.755Z,5.83
2016-02-10T12:45:25.757Z,5.84
2016-02-10T12:46:25.760Z,5.97
2016-02-10T12:47:25.763Z,5.95
2016-02-10T12:48:25.749Z,5.94
2016-02-10T12:49:25.752Z,5.88
2016-02-10T12:50:25.741Z,5.97
2016-02-10T12:51:25.737Z,5.95
2016-02-10T12:52:25.739Z,5.92
2016-02-10T12:53:25.742Z,5.94
2016-02-10T12:54:25.744Z,6.01
2016-02-10T12:55:25.731Z,5.92
2016-02-10T12:56:25.734Z,6.02
2016-02-10T12:57:25.753Z,5.98
2016-02-10T12:58:25.739Z,6.05
2016-02-10T12:59:25.773Z,6.01
2016-02-10T13:00:25.729Z,6.02
2016-02-10T13:01:25.764Z,6.07
2016-02-10T13:02:25.736Z,6.09
2016-02-10T13:03:25.723Z,6.25
2016-02-10T13:04:25.740Z,6.2
2016-02-10T13:05:25.728Z,6.25
2016-02-10T13:06:25.731Z,6.17
2016-02-10T13:07:25.717Z,6.13
2016-02-10T13:08:25.736Z,6.1
2016-02-10T13:09:25.723Z,6.12
2016-02-10T13:10:25.744Z,6.01
2016-02-10T13:11:25.715Z,6.1
2016-02-10T13:12:25.718Z,6.06
2016-02-10T13:13:25.721Z,6.05
2016-02-10T13:14:25.724Z,6.05
2016-02-10T13:15:25.710Z,5.99
2016-02-10T13:16:25.713Z,6.17
2016-02-10T13:17:25.715Z,6.13
2016-02-10T13:18:25.719Z,6.09
2016-02-10T13:19:25.706Z,6.16
2016-02-10T13:20:25.694Z,6.13
2016-02-10T13:21:25.711Z,6.12